sensor_id;sensor_type;location;lat;lon;timestamp;P1;durP1;ratioP1;P2;durP2;ratioP2
59424;SDS011;45231;44.826;20.312;2023-02-04T00:01:05;10.30;;;5.93;;
59424;SDS011;45231;44.826;20.312;2023-02-04T00:03:31;11.88;;;6.15;;
59424;SDS011;45231;44.826;20.312;2023-02-04T00:05:57;12.27;;;6.20;;
59424;SDS011;45231;44.826;20.312;2023-02-04T00:08:23;12.57;;;6.50;;
59424;SDS011;45231;44.826;20.312;2023-02-04T00:10:49;14.03;;;6.20;;
59424;SDS011;45231;44.826;20.312;2023-02-04T00:13:16;8.83;;;5.73;;
59424;SDS011;45231;44.826;20.312;2023-02-04T00:15:42;10.32;;;5.95;;
59424;SDS011;45231;44.826;20.312;2023-02-04T00:18:08;10.50;;;5.57;;
59424;SDS011;45231;44.826;20.312;2023-02-04T00:20:34;11.77;;;6.20;;
59424;SDS011;45231;44.826;20.312;2023-02-04T00:23:00;11.27;;;5.57;;
59424;SDS011;45231;44.826;20.312;2023-02-04T00:25:26;9.90;;;5.07;;
59424;SDS011;45231;44.826;20.312;2023-02-04T00:27:52;9.23;;;5.25;;
59424;SDS011;45231;44.826;20.312;2023-02-04T00:30:18;9.23;;;4.65;;
59424;SDS011;45231;44.826;20.312;2023-02-04T00:32:45;9.40;;;5.03;;
59424;SDS011;45231;44.826;20.312;2023-02-04T00:35:14;9.70;;;5.20;;
59424;SDS011;45231;44.826;20.312;2023-02-04T00:37:41;8.98;;;5.00;;
59424;SDS011;45231;44.826;20.312;2023-02-04T00:40:07;10.55;;;4.97;;
59424;SDS011;45231;44.826;20.312;2023-02-04T00:42:33;9.77;;;4.70;;
59424;SDS011;45231;44.826;20.312;2023-02-04T00:44:59;10.10;;;4.57;;
59424;SDS011;45231;44.826;20.312;2023-02-04T00:47:25;10.75;;;4.45;;
59424;SDS011;45231;44.826;20.312;2023-02-04T00:49:52;9.43;;;4.22;;
59424;SDS011;45231;44.826;20.312;2023-02-04T00:52:18;8.47;;;3.87;;
59424;SDS011;45231;44.826;20.312;2023-02-04T00:54:44;8.77;;;3.80;;
59424;SDS011;45231;44.826;20.312;2023-02-04T00:57:10;8.75;;;3.25;;
59424;SDS011;45231;44.826;20.312;2023-02-04T00:59:36;10.43;;;3.40;;
59424;SDS011;45231;44.826;20.312;2023-02-04T01:02:02;9.10;;;3.23;;
59424;SDS011;45231;44.826;20.312;2023-02-04T01:04:28;6.68;;;2.90;;
59424;SDS011;45231;44.826;20.312;2023-02-04T01:06:55;7.18;;;2.70;;
59424;SDS011;45231;44.826;20.312;2023-02-04T01:09:21;6.15;;;2.67;;
59424;SDS011;45231;44.826;20.312;2023-02-04T01:11:47;8.17;;;2.43;;
59424;SDS011;45231;44.826;20.312;2023-02-04T01:14:13;4.47;;;2.03;;
59424;SDS011;45231;44.826;20.312;2023-02-04T01:16:39;7.03;;;2.20;;
59424;SDS011;45231;44.826;20.312;2023-02-04T01:19:06;8.02;;;2.53;;
59424;SDS011;45231;44.826;20.312;2023-02-04T01:21:32;7.85;;;1.77;;
59424;SDS011;45231;44.826;20.312;2023-02-04T01:23:58;7.38;;;2.13;;
59424;SDS011;45231;44.826;20.312;2023-02-04T01:26:24;7.33;;;2.00;;
59424;SDS011;45231;44.826;20.312;2023-02-04T01:28:50;5.97;;;1.93;;
59424;SDS011;45231;44.826;20.312;2023-02-04T01:31:17;7.27;;;2.17;;
59424;SDS011;45231;44.826;20.312;2023-02-04T01:33:43;6.32;;;1.75;;
59424;SDS011;45231;44.826;20.312;2023-02-04T01:36:09;8.63;;;2.27;;
59424;SDS011;45231;44.826;20.312;2023-02-04T01:38:36;8.90;;;2.95;;
59424;SDS011;45231;44.826;20.312;2023-02-04T01:41:02;9.43;;;3.47;;
59424;SDS011;45231;44.826;20.312;2023-02-04T01:43:28;11.00;;;3.90;;
59424;SDS011;45231;44.826;20.312;2023-02-04T01:45:55;13.15;;;4.10;;
59424;SDS011;45231;44.826;20.312;2023-02-04T01:48:22;7.60;;;3.58;;
59424;SDS011;45231;44.826;20.312;2023-02-04T01:50:49;9.70;;;3.85;;
59424;SDS011;45231;44.826;20.312;2023-02-04T01:53:17;8.32;;;3.03;;
59424;SDS011;45231;44.826;20.312;2023-02-04T01:55:44;9.70;;;3.00;;
59424;SDS011;45231;44.826;20.312;2023-02-04T01:58:11;5.78;;;2.65;;
59424;SDS011;45231;44.826;20.312;2023-02-04T02:00:37;8.48;;;2.80;;
59424;SDS011;45231;44.826;20.312;2023-02-04T02:03:04;6.90;;;2.45;;
59424;SDS011;45231;44.826;20.312;2023-02-04T02:08:05;10.15;;;2.78;;
59424;SDS011;45231;44.826;20.312;2023-02-04T02:10:32;9.80;;;2.88;;
59424;SDS011;45231;44.826;20.312;2023-02-04T02:12:58;7.72;;;2.55;;
59424;SDS011;45231;44.826;20.312;2023-02-04T02:15:24;8.98;;;2.58;;
59424;SDS011;45231;44.826;20.312;2023-02-04T02:17:51;8.52;;;2.50;;
59424;SDS011;45231;44.826;20.312;2023-02-04T02:25:11;11.70;;;3.43;;
59424;SDS011;45231;44.826;20.312;2023-02-04T02:30:04;8.82;;;3.08;;
59424;SDS011;45231;44.826;20.312;2023-02-04T02:32:31;10.02;;;2.35;;
59424;SDS011;45231;44.826;20.312;2023-02-04T02:34:57;9.00;;;2.60;;
59424;SDS011;45231;44.826;20.312;2023-02-04T02:37:23;5.37;;;1.40;;
59424;SDS011;45231;44.826;20.312;2023-02-04T02:39:49;10.17;;;3.40;;
59424;SDS011;45231;44.826;20.312;2023-02-04T02:42:15;7.93;;;2.10;;
59424;SDS011;45231;44.826;20.312;2023-02-04T02:44:43;6.00;;;1.95;;
59424;SDS011;45231;44.826;20.312;2023-02-04T02:47:16;7.00;;;2.03;;
59424;SDS011;45231;44.826;20.312;2023-02-04T02:49:43;9.02;;;2.20;;
59424;SDS011;45231;44.826;20.312;2023-02-04T02:52:10;6.65;;;1.70;;
59424;SDS011;45231;44.826;20.312;2023-02-04T02:54:36;8.70;;;1.60;;
59424;SDS011;45231;44.826;20.312;2023-02-04T02:57:04;5.53;;;1.57;;
59424;SDS011;45231;44.826;20.312;2023-02-04T02:59:35;6.50;;;1.95;;
59424;SDS011;45231;44.826;20.312;2023-02-04T03:02:01;5.43;;;1.83;;
59424;SDS011;45231;44.826;20.312;2023-02-04T03:04:30;5.07;;;1.70;;
59424;SDS011;45231;44.826;20.312;2023-02-04T03:06:56;6.40;;;1.98;;
59424;SDS011;45231;44.826;20.312;2023-02-04T03:09:23;6.47;;;1.77;;
59424;SDS011;45231;44.826;20.312;2023-02-04T03:11:50;8.80;;;1.70;;
59424;SDS011;45231;44.826;20.312;2023-02-04T03:14:16;7.22;;;1.88;;
59424;SDS011;45231;44.826;20.312;2023-02-04T03:16:43;7.47;;;1.67;;
59424;SDS011;45231;44.826;20.312;2023-02-04T03:19:09;6.65;;;1.80;;
59424;SDS011;45231;44.826;20.312;2023-02-04T03:21:36;6.68;;;1.65;;
59424;SDS011;45231;44.826;20.312;2023-02-04T03:24:03;6.38;;;1.75;;
59424;SDS011;45231;44.826;20.312;2023-02-04T03:26:29;5.38;;;1.70;;
59424;SDS011;45231;44.826;20.312;2023-02-04T03:28:55;7.20;;;1.67;;
59424;SDS011;45231;44.826;20.312;2023-02-04T03:31:21;8.73;;;1.80;;
59424;SDS011;45231;44.826;20.312;2023-02-04T03:33:47;4.87;;;1.57;;
59424;SDS011;45231;44.826;20.312;2023-02-04T03:36:16;7.20;;;1.60;;
59424;SDS011;45231;44.826;20.312;2023-02-04T03:38:44;6.40;;;1.80;;
59424;SDS011;45231;44.826;20.312;2023-02-04T03:41:10;5.77;;;1.97;;
59424;SDS011;45231;44.826;20.312;2023-02-04T03:43:36;5.33;;;1.80;;
59424;SDS011;45231;44.826;20.312;2023-02-04T03:46:02;4.57;;;1.80;;
59424;SDS011;45231;44.826;20.312;2023-02-04T03:48:28;6.93;;;2.30;;
59424;SDS011;45231;44.826;20.312;2023-02-04T03:50:54;5.88;;;1.83;;
59424;SDS011;45231;44.826;20.312;2023-02-04T03:53:20;6.03;;;1.87;;
59424;SDS011;45231;44.826;20.312;2023-02-04T03:55:47;7.20;;;1.80;;
59424;SDS011;45231;44.826;20.312;2023-02-04T03:58:13;7.00;;;1.97;;
59424;SDS011;45231;44.826;20.312;2023-02-04T04:00:39;5.20;;;2.00;;
59424;SDS011;45231;44.826;20.312;2023-02-04T04:03:05;7.87;;;2.40;;
59424;SDS011;45231;44.826;20.312;2023-02-04T04:05:31;5.87;;;2.20;;
59424;SDS011;45231;44.826;20.312;2023-02-04T04:07:57;6.00;;;2.22;;
59424;SDS011;45231;44.826;20.312;2023-02-04T04:10:24;6.85;;;2.40;;
59424;SDS011;45231;44.826;20.312;2023-02-04T04:12:50;6.45;;;2.40;;
59424;SDS011;45231;44.826;20.312;2023-02-04T04:15:16;6.50;;;2.43;;
59424;SDS011;45231;44.826;20.312;2023-02-04T04:17:42;6.72;;;2.40;;
59424;SDS011;45231;44.826;20.312;2023-02-04T04:20:08;8.55;;;2.50;;
59424;SDS011;45231;44.826;20.312;2023-02-04T04:22:34;9.07;;;2.80;;
59424;SDS011;45231;44.826;20.312;2023-02-04T04:25:01;7.07;;;2.60;;
59424;SDS011;45231;44.826;20.312;2023-02-04T04:27:27;6.03;;;2.67;;
59424;SDS011;45231;44.826;20.312;2023-02-04T04:32:20;8.07;;;2.85;;
59424;SDS011;45231;44.826;20.312;2023-02-04T04:34:46;7.22;;;3.17;;
59424;SDS011;45231;44.826;20.312;2023-02-04T04:37:12;7.37;;;3.10;;
59424;SDS011;45231;44.826;20.312;2023-02-04T04:39:38;7.55;;;2.53;;
59424;SDS011;45231;44.826;20.312;2023-02-04T04:42:04;6.85;;;2.88;;
59424;SDS011;45231;44.826;20.312;2023-02-04T04:44:30;7.85;;;3.08;;
59424;SDS011;45231;44.826;20.312;2023-02-04T04:46:56;6.60;;;2.83;;
59424;SDS011;45231;44.826;20.312;2023-02-04T04:49:23;9.60;;;2.60;;
59424;SDS011;45231;44.826;20.312;2023-02-04T04:51:49;7.80;;;2.33;;
59424;SDS011;45231;44.826;20.312;2023-02-04T04:54:15;8.33;;;2.33;;
59424;SDS011;45231;44.826;20.312;2023-02-04T04:56:41;7.87;;;2.20;;
59424;SDS011;45231;44.826;20.312;2023-02-04T04:59:07;9.13;;;2.20;;
59424;SDS011;45231;44.826;20.312;2023-02-04T05:01:34;8.25;;;2.13;;
59424;SDS011;45231;44.826;20.312;2023-02-04T05:04:00;6.70;;;1.80;;
59424;SDS011;45231;44.826;20.312;2023-02-04T05:06:28;9.35;;;2.25;;
59424;SDS011;45231;44.826;20.312;2023-02-04T05:08:54;6.63;;;1.60;;
59424;SDS011;45231;44.826;20.312;2023-02-04T05:11:20;5.93;;;1.90;;
59424;SDS011;45231;44.826;20.312;2023-02-04T05:13:46;7.93;;;2.38;;
59424;SDS011;45231;44.826;20.312;2023-02-04T05:16:12;7.20;;;2.08;;
59424;SDS011;45231;44.826;20.312;2023-02-04T05:18:40;7.93;;;1.95;;
59424;SDS011;45231;44.826;20.312;2023-02-04T05:21:06;6.63;;;1.92;;
59424;SDS011;45231;44.826;20.312;2023-02-04T05:23:33;7.63;;;1.92;;
59424;SDS011;45231;44.826;20.312;2023-02-04T05:25:59;10.73;;;1.80;;
59424;SDS011;45231;44.826;20.312;2023-02-04T05:28:25;7.37;;;1.80;;
59424;SDS011;45231;44.826;20.312;2023-02-04T05:30:51;8.77;;;2.13;;
59424;SDS011;45231;44.826;20.312;2023-02-04T05:33:17;8.77;;;2.20;;
59424;SDS011;45231;44.826;20.312;2023-02-04T05:35:43;7.10;;;2.27;;
59424;SDS011;45231;44.826;20.312;2023-02-04T05:38:09;8.50;;;2.63;;
59424;SDS011;45231;44.826;20.312;2023-02-04T05:40:36;7.18;;;1.90;;
59424;SDS011;45231;44.826;20.312;2023-02-04T05:43:02;9.03;;;2.10;;
59424;SDS011;45231;44.826;20.312;2023-02-04T05:45:29;9.73;;;2.15;;
59424;SDS011;45231;44.826;20.312;2023-02-04T05:47:55;9.25;;;2.33;;
59424;SDS011;45231;44.826;20.312;2023-02-04T05:50:21;12.70;;;2.70;;
59424;SDS011;45231;44.826;20.312;2023-02-04T05:52:47;8.35;;;2.10;;
59424;SDS011;45231;44.826;20.312;2023-02-04T05:55:13;8.20;;;2.37;;
59424;SDS011;45231;44.826;20.312;2023-02-04T05:57:39;8.83;;;2.80;;
59424;SDS011;45231;44.826;20.312;2023-02-04T06:00:06;10.10;;;2.85;;
59424;SDS011;45231;44.826;20.312;2023-02-04T06:02:32;10.90;;;2.60;;
59424;SDS011;45231;44.826;20.312;2023-02-04T06:04:58;6.57;;;2.47;;
59424;SDS011;45231;44.826;20.312;2023-02-04T06:07:24;7.20;;;2.63;;
59424;SDS011;45231;44.826;20.312;2023-02-04T06:09:50;9.00;;;2.50;;
59424;SDS011;45231;44.826;20.312;2023-02-04T06:12:17;8.50;;;2.70;;
59424;SDS011;45231;44.826;20.312;2023-02-04T06:14:43;11.37;;;3.53;;
59424;SDS011;45231;44.826;20.312;2023-02-04T06:17:09;10.88;;;3.50;;
59424;SDS011;45231;44.826;20.312;2023-02-04T06:19:35;8.67;;;2.07;;
59424;SDS011;45231;44.826;20.312;2023-02-04T06:22:01;7.63;;;1.97;;
59424;SDS011;45231;44.826;20.312;2023-02-04T06:24:27;6.27;;;1.63;;
59424;SDS011;45231;44.826;20.312;2023-02-04T06:26:53;8.60;;;1.67;;
59424;SDS011;45231;44.826;20.312;2023-02-04T06:29:19;5.93;;;1.80;;
59424;SDS011;45231;44.826;20.312;2023-02-04T06:31:45;8.32;;;1.90;;
59424;SDS011;45231;44.826;20.312;2023-02-04T06:34:13;7.60;;;2.17;;
59424;SDS011;45231;44.826;20.312;2023-02-04T06:36:39;8.17;;;2.40;;
59424;SDS011;45231;44.826;20.312;2023-02-04T06:39:05;6.73;;;1.80;;
59424;SDS011;45231;44.826;20.312;2023-02-04T06:41:32;7.93;;;2.10;;
59424;SDS011;45231;44.826;20.312;2023-02-04T06:43:58;7.73;;;1.97;;
59424;SDS011;45231;44.826;20.312;2023-02-04T06:46:24;7.65;;;2.10;;
59424;SDS011;45231;44.826;20.312;2023-02-04T06:48:50;10.23;;;2.13;;
59424;SDS011;45231;44.826;20.312;2023-02-04T06:51:16;7.38;;;2.42;;
59424;SDS011;45231;44.826;20.312;2023-02-04T06:53:42;10.07;;;2.00;;
59424;SDS011;45231;44.826;20.312;2023-02-04T06:56:09;10.38;;;2.97;;
59424;SDS011;45231;44.826;20.312;2023-02-04T06:58:37;7.25;;;2.08;;
59424;SDS011;45231;44.826;20.312;2023-02-04T07:01:03;7.43;;;2.27;;
59424;SDS011;45231;44.826;20.312;2023-02-04T07:03:30;9.70;;;2.83;;
59424;SDS011;45231;44.826;20.312;2023-02-04T07:05:56;8.45;;;2.67;;
59424;SDS011;45231;44.826;20.312;2023-02-04T07:08:23;9.10;;;2.08;;
59424;SDS011;45231;44.826;20.312;2023-02-04T07:10:49;10.30;;;2.15;;
59424;SDS011;45231;44.826;20.312;2023-02-04T07:13:15;9.23;;;2.37;;
59424;SDS011;45231;44.826;20.312;2023-02-04T07:15:41;10.65;;;2.60;;
59424;SDS011;45231;44.826;20.312;2023-02-04T07:18:07;10.50;;;2.83;;
59424;SDS011;45231;44.826;20.312;2023-02-04T07:20:33;9.73;;;2.38;;
59424;SDS011;45231;44.826;20.312;2023-02-04T07:22:59;7.90;;;2.07;;
59424;SDS011;45231;44.826;20.312;2023-02-04T07:25:25;6.30;;;1.83;;
59424;SDS011;45231;44.826;20.312;2023-02-04T07:27:51;6.45;;;1.85;;
59424;SDS011;45231;44.826;20.312;2023-02-04T07:30:18;6.60;;;1.80;;
59424;SDS011;45231;44.826;20.312;2023-02-04T07:32:44;7.20;;;1.93;;
59424;SDS011;45231;44.826;20.312;2023-02-04T07:35:10;7.77;;;1.73;;
59424;SDS011;45231;44.826;20.312;2023-02-04T07:37:36;7.90;;;1.90;;
59424;SDS011;45231;44.826;20.312;2023-02-04T07:40:03;6.68;;;1.83;;
59424;SDS011;45231;44.826;20.312;2023-02-04T07:42:29;10.90;;;2.42;;
59424;SDS011;45231;44.826;20.312;2023-02-04T07:44:55;5.87;;;2.47;;
59424;SDS011;45231;44.826;20.312;2023-02-04T07:47:21;10.25;;;3.58;;
59424;SDS011;45231;44.826;20.312;2023-02-04T07:49:47;7.83;;;2.60;;
59424;SDS011;45231;44.826;20.312;2023-02-04T07:52:15;9.70;;;3.05;;
59424;SDS011;45231;44.826;20.312;2023-02-04T07:54:41;8.03;;;2.70;;
59424;SDS011;45231;44.826;20.312;2023-02-04T07:57:07;10.83;;;2.80;;
59424;SDS011;45231;44.826;20.312;2023-02-04T07:59:33;5.95;;;2.17;;
59424;SDS011;45231;44.826;20.312;2023-02-04T08:01:59;7.60;;;2.22;;
59424;SDS011;45231;44.826;20.312;2023-02-04T08:04:26;11.05;;;3.25;;
59424;SDS011;45231;44.826;20.312;2023-02-04T08:06:52;8.75;;;2.65;;
59424;SDS011;45231;44.826;20.312;2023-02-04T08:09:18;4.83;;;1.93;;
59424;SDS011;45231;44.826;20.312;2023-02-04T08:11:44;11.30;;;2.93;;
59424;SDS011;45231;44.826;20.312;2023-02-04T08:14:10;10.45;;;3.55;;
59424;SDS011;45231;44.826;20.312;2023-02-04T08:16:36;14.43;;;4.95;;
59424;SDS011;45231;44.826;20.312;2023-02-04T08:19:03;15.75;;;5.88;;
59424;SDS011;45231;44.826;20.312;2023-02-04T08:21:29;15.00;;;7.90;;
59424;SDS011;45231;44.826;20.312;2023-02-04T08:23:55;18.70;;;8.02;;
59424;SDS011;45231;44.826;20.312;2023-02-04T08:26:21;11.40;;;5.53;;
59424;SDS011;45231;44.826;20.312;2023-02-04T08:28:47;11.93;;;4.90;;
59424;SDS011;45231;44.826;20.312;2023-02-04T08:31:13;13.77;;;5.23;;
59424;SDS011;45231;44.826;20.312;2023-02-04T08:33:39;18.70;;;5.85;;
59424;SDS011;45231;44.826;20.312;2023-02-04T08:36:06;19.73;;;7.70;;
59424;SDS011;45231;44.826;20.312;2023-02-04T08:38:32;18.42;;;7.20;;
59424;SDS011;45231;44.826;20.312;2023-02-04T08:40:58;17.15;;;7.05;;
59424;SDS011;45231;44.826;20.312;2023-02-04T08:43:25;14.32;;;5.82;;
59424;SDS011;45231;44.826;20.312;2023-02-04T08:45:51;18.05;;;7.15;;
59424;SDS011;45231;44.826;20.312;2023-02-04T08:48:17;15.40;;;5.00;;
59424;SDS011;45231;44.826;20.312;2023-02-04T08:50:43;15.13;;;4.83;;
59424;SDS011;45231;44.826;20.312;2023-02-04T08:53:09;8.33;;;3.50;;
59424;SDS011;45231;44.826;20.312;2023-02-04T08:55:35;10.90;;;3.40;;
59424;SDS011;45231;44.826;20.312;2023-02-04T08:58:01;9.00;;;3.20;;
59424;SDS011;45231;44.826;20.312;2023-02-04T09:00:28;7.50;;;2.60;;
59424;SDS011;45231;44.826;20.312;2023-02-04T09:02:54;8.00;;;2.83;;
59424;SDS011;45231;44.826;20.312;2023-02-04T09:05:20;12.10;;;3.53;;
59424;SDS011;45231;44.826;20.312;2023-02-04T09:07:46;8.00;;;2.58;;
59424;SDS011;45231;44.826;20.312;2023-02-04T09:10:12;10.30;;;4.07;;
59424;SDS011;45231;44.826;20.312;2023-02-04T09:12:39;5.33;;;2.10;;
59424;SDS011;45231;44.826;20.312;2023-02-04T09:15:06;6.07;;;1.83;;
59424;SDS011;45231;44.826;20.312;2023-02-04T09:17:34;5.13;;;2.50;;
59424;SDS011;45231;44.826;20.312;2023-02-04T09:20:03;3.80;;;1.38;;
59424;SDS011;45231;44.826;20.312;2023-02-04T09:22:29;3.42;;;1.73;;
59424;SDS011;45231;44.826;20.312;2023-02-04T09:24:56;2.67;;;0.90;;
59424;SDS011;45231;44.826;20.312;2023-02-04T09:27:22;1.98;;;0.70;;
59424;SDS011;45231;44.826;20.312;2023-02-04T09:29:48;3.13;;;1.00;;
59424;SDS011;45231;44.826;20.312;2023-02-04T09:32:14;2.20;;;0.90;;
59424;SDS011;45231;44.826;20.312;2023-02-04T09:34:40;1.40;;;0.80;;
59424;SDS011;45231;44.826;20.312;2023-02-04T09:37:06;4.37;;;1.30;;
59424;SDS011;45231;44.826;20.312;2023-02-04T09:39:32;3.57;;;1.27;;
59424;SDS011;45231;44.826;20.312;2023-02-04T09:41:58;5.25;;;1.95;;
59424;SDS011;45231;44.826;20.312;2023-02-04T09:44:25;4.25;;;1.50;;
59424;SDS011;45231;44.826;20.312;2023-02-04T09:46:52;3.05;;;1.15;;
59424;SDS011;45231;44.826;20.312;2023-02-04T09:49:19;4.72;;;1.48;;
59424;SDS011;45231;44.826;20.312;2023-02-04T09:51:46;4.00;;;1.40;;
59424;SDS011;45231;44.826;20.312;2023-02-04T09:54:18;3.60;;;1.42;;
59424;SDS011;45231;44.826;20.312;2023-02-04T09:56:45;5.57;;;2.50;;
59424;SDS011;45231;44.826;20.312;2023-02-04T09:59:13;6.93;;;4.43;;
59424;SDS011;45231;44.826;20.312;2023-02-04T10:01:39;5.70;;;2.53;;
59424;SDS011;45231;44.826;20.312;2023-02-04T10:04:07;5.07;;;2.03;;
59424;SDS011;45231;44.826;20.312;2023-02-04T10:06:34;4.30;;;1.60;;
59424;SDS011;45231;44.826;20.312;2023-02-04T10:09:01;4.78;;;1.88;;
59424;SDS011;45231;44.826;20.312;2023-02-04T10:11:27;5.35;;;1.77;;
59424;SDS011;45231;44.826;20.312;2023-02-04T10:13:56;5.45;;;1.65;;
59424;SDS011;45231;44.826;20.312;2023-02-04T10:16:23;3.90;;;1.45;;
59424;SDS011;45231;44.826;20.312;2023-02-04T10:19:01;6.43;;;2.40;;
59424;SDS011;45231;44.826;20.312;2023-02-04T10:21:31;4.63;;;1.80;;
59424;SDS011;45231;44.826;20.312;2023-02-04T10:23:58;6.18;;;2.50;;
59424;SDS011;45231;44.826;20.312;2023-02-04T10:28:56;6.88;;;2.53;;
59424;SDS011;45231;44.826;20.312;2023-02-04T10:31:35;6.43;;;2.30;;
59424;SDS011;45231;44.826;20.312;2023-02-04T10:34:06;6.47;;;1.60;;
59424;SDS011;45231;44.826;20.312;2023-02-04T10:36:34;7.57;;;2.60;;
59424;SDS011;45231;44.826;20.312;2023-02-04T10:39:01;8.37;;;1.80;;
59424;SDS011;45231;44.826;20.312;2023-02-04T10:41:28;7.70;;;2.72;;
59424;SDS011;45231;44.826;20.312;2023-02-04T10:44:02;4.50;;;1.88;;
59424;SDS011;45231;44.826;20.312;2023-02-04T10:46:29;5.47;;;2.22;;
59424;SDS011;45231;44.826;20.312;2023-02-04T10:48:55;5.03;;;2.15;;
59424;SDS011;45231;44.826;20.312;2023-02-04T10:51:21;3.47;;;1.85;;
59424;SDS011;45231;44.826;20.312;2023-02-04T10:53:48;5.93;;;2.33;;
59424;SDS011;45231;44.826;20.312;2023-02-04T10:56:33;5.55;;;2.28;;
59424;SDS011;45231;44.826;20.312;2023-02-04T10:58:59;4.18;;;2.35;;
59424;SDS011;45231;44.826;20.312;2023-02-04T11:01:25;7.63;;;2.95;;
59424;SDS011;45231;44.826;20.312;2023-02-04T11:03:53;8.02;;;3.25;;
59424;SDS011;45231;44.826;20.312;2023-02-04T11:06:20;7.93;;;2.80;;
59424;SDS011;45231;44.826;20.312;2023-02-04T11:11:15;8.57;;;3.90;;
59424;SDS011;45231;44.826;20.312;2023-02-04T11:14:03;8.88;;;4.93;;
59424;SDS011;45231;44.826;20.312;2023-02-04T11:16:30;8.27;;;4.60;;
59424;SDS011;45231;44.826;20.312;2023-02-04T11:19:01;9.80;;;4.95;;
59424;SDS011;45231;44.826;20.312;2023-02-04T11:26:39;11.23;;;4.75;;
59424;SDS011;45231;44.826;20.312;2023-02-04T11:34:07;12.25;;;6.30;;
59424;SDS011;45231;44.826;20.312;2023-02-04T11:39:19;8.82;;;5.20;;
59424;SDS011;45231;44.826;20.312;2023-02-04T11:41:45;8.93;;;5.50;;
59424;SDS011;45231;44.826;20.312;2023-02-04T11:44:13;10.07;;;6.28;;
59424;SDS011;45231;44.826;20.312;2023-02-04T11:46:40;9.30;;;5.93;;
59424;SDS011;45231;44.826;20.312;2023-02-04T11:49:13;9.50;;;4.17;;
59424;SDS011;45231;44.826;20.312;2023-02-04T11:51:42;10.80;;;4.55;;
59424;SDS011;45231;44.826;20.312;2023-02-04T11:54:10;6.68;;;3.97;;
59424;SDS011;45231;44.826;20.312;2023-02-04T11:56:36;7.53;;;4.10;;
59424;SDS011;45231;44.826;20.312;2023-02-04T11:59:03;9.20;;;4.70;;
59424;SDS011;45231;44.826;20.312;2023-02-04T12:01:30;8.85;;;5.30;;
59424;SDS011;45231;44.826;20.312;2023-02-04T12:04:01;9.07;;;4.90;;
59424;SDS011;45231;44.826;20.312;2023-02-04T12:06:28;11.45;;;6.55;;
59424;SDS011;45231;44.826;20.312;2023-02-04T12:11:49;10.07;;;5.65;;
59424;SDS011;45231;44.826;20.312;2023-02-04T12:14:16;9.38;;;5.15;;
59424;SDS011;45231;44.826;20.312;2023-02-04T12:16:46;11.10;;;5.43;;
59424;SDS011;45231;44.826;20.312;2023-02-04T12:19:12;12.63;;;5.90;;
59424;SDS011;45231;44.826;20.312;2023-02-04T12:21:39;8.07;;;4.03;;
59424;SDS011;45231;44.826;20.312;2023-02-04T12:24:05;11.75;;;5.45;;
59424;SDS011;45231;44.826;20.312;2023-02-04T12:26:31;13.63;;;3.88;;
59424;SDS011;45231;44.826;20.312;2023-02-04T12:28:57;9.68;;;4.60;;
59424;SDS011;45231;44.826;20.312;2023-02-04T12:31:27;11.52;;;5.53;;
59424;SDS011;45231;44.826;20.312;2023-02-04T12:33:53;8.18;;;4.47;;
59424;SDS011;45231;44.826;20.312;2023-02-04T12:36:19;8.80;;;5.03;;
59424;SDS011;45231;44.826;20.312;2023-02-04T12:38:45;9.48;;;4.82;;
59424;SDS011;45231;44.826;20.312;2023-02-04T12:41:11;10.30;;;5.90;;
59424;SDS011;45231;44.826;20.312;2023-02-04T12:43:37;7.63;;;4.45;;
59424;SDS011;45231;44.826;20.312;2023-02-04T12:46:04;11.23;;;5.27;;
59424;SDS011;45231;44.826;20.312;2023-02-04T12:48:30;8.40;;;4.17;;
59424;SDS011;45231;44.826;20.312;2023-02-04T12:50:56;8.57;;;4.60;;
59424;SDS011;45231;44.826;20.312;2023-02-04T12:53:22;9.00;;;4.40;;
59424;SDS011;45231;44.826;20.312;2023-02-04T12:55:48;8.07;;;4.88;;
59424;SDS011;45231;44.826;20.312;2023-02-04T12:58:14;9.63;;;5.72;;
59424;SDS011;45231;44.826;20.312;2023-02-04T13:00:41;7.95;;;4.28;;
59424;SDS011;45231;44.826;20.312;2023-02-04T13:03:07;7.20;;;4.43;;
59424;SDS011;45231;44.826;20.312;2023-02-04T13:05:33;9.97;;;5.93;;
59424;SDS011;45231;44.826;20.312;2023-02-04T13:08:00;10.60;;;5.57;;
59424;SDS011;45231;44.826;20.312;2023-02-04T13:10:26;12.05;;;7.45;;
59424;SDS011;45231;44.826;20.312;2023-02-04T13:12:52;10.35;;;6.78;;
59424;SDS011;45231;44.826;20.312;2023-02-04T13:15:18;10.40;;;6.45;;
59424;SDS011;45231;44.826;20.312;2023-02-04T13:17:44;9.10;;;5.47;;
59424;SDS011;45231;44.826;20.312;2023-02-04T13:20:11;10.25;;;6.05;;
59424;SDS011;45231;44.826;20.312;2023-02-04T13:22:37;9.80;;;5.97;;
59424;SDS011;45231;44.826;20.312;2023-02-04T13:25:04;11.18;;;6.18;;
59424;SDS011;45231;44.826;20.312;2023-02-04T13:27:30;7.90;;;4.75;;
59424;SDS011;45231;44.826;20.312;2023-02-04T13:29:56;6.90;;;3.93;;
59424;SDS011;45231;44.826;20.312;2023-02-04T13:32:23;8.88;;;4.90;;
59424;SDS011;45231;44.826;20.312;2023-02-04T13:34:49;7.85;;;4.25;;
59424;SDS011;45231;44.826;20.312;2023-02-04T13:37:18;7.22;;;3.83;;
59424;SDS011;45231;44.826;20.312;2023-02-04T13:39:44;6.67;;;3.80;;
59424;SDS011;45231;44.826;20.312;2023-02-04T13:42:10;7.73;;;3.80;;
59424;SDS011;45231;44.826;20.312;2023-02-04T13:44:36;7.20;;;3.40;;
59424;SDS011;45231;44.826;20.312;2023-02-04T13:47:02;8.77;;;5.68;;
59424;SDS011;45231;44.826;20.312;2023-02-04T13:49:29;9.27;;;5.72;;
59424;SDS011;45231;44.826;20.312;2023-02-04T13:51:55;8.27;;;4.85;;
59424;SDS011;45231;44.826;20.312;2023-02-04T13:54:21;10.33;;;5.03;;
59424;SDS011;45231;44.826;20.312;2023-02-04T13:56:48;9.60;;;5.40;;
59424;SDS011;45231;44.826;20.312;2023-02-04T13:59:14;9.30;;;6.13;;
59424;SDS011;45231;44.826;20.312;2023-02-04T14:01:40;9.07;;;5.20;;
59424;SDS011;45231;44.826;20.312;2023-02-04T14:04:06;8.95;;;5.60;;
59424;SDS011;45231;44.826;20.312;2023-02-04T14:06:32;11.40;;;5.10;;
59424;SDS011;45231;44.826;20.312;2023-02-04T14:09:02;11.30;;;6.57;;
59424;SDS011;45231;44.826;20.312;2023-02-04T14:11:29;10.60;;;6.13;;
59424;SDS011;45231;44.826;20.312;2023-02-04T14:13:55;10.17;;;4.83;;
59424;SDS011;45231;44.826;20.312;2023-02-04T14:16:21;9.03;;;5.20;;
59424;SDS011;45231;44.826;20.312;2023-02-04T14:18:47;9.60;;;5.87;;
59424;SDS011;45231;44.826;20.312;2023-02-04T14:21:13;61.38;;;31.55;;
59424;SDS011;45231;44.826;20.312;2023-02-04T14:23:39;12.37;;;7.57;;
59424;SDS011;45231;44.826;20.312;2023-02-04T14:26:11;11.35;;;6.63;;
59424;SDS011;45231;44.826;20.312;2023-02-04T14:28:37;11.13;;;7.32;;
59424;SDS011;45231;44.826;20.312;2023-02-04T14:31:03;14.00;;;7.60;;
59424;SDS011;45231;44.826;20.312;2023-02-04T14:33:30;9.20;;;5.00;;
59424;SDS011;45231;44.826;20.312;2023-02-04T14:35:58;9.18;;;5.47;;
59424;SDS011;45231;44.826;20.312;2023-02-04T14:38:24;8.67;;;5.37;;
59424;SDS011;45231;44.826;20.312;2023-02-04T14:40:55;12.35;;;6.32;;
59424;SDS011;45231;44.826;20.312;2023-02-04T14:43:21;10.02;;;5.90;;
59424;SDS011;45231;44.826;20.312;2023-02-04T14:45:47;6.97;;;3.42;;
59424;SDS011;45231;44.826;20.312;2023-02-04T14:48:13;9.38;;;5.10;;
59424;SDS011;45231;44.826;20.312;2023-02-04T14:50:39;11.65;;;6.35;;
59424;SDS011;45231;44.826;20.312;2023-02-04T14:53:05;9.73;;;5.00;;
59424;SDS011;45231;44.826;20.312;2023-02-04T14:55:32;10.25;;;4.85;;
59424;SDS011;45231;44.826;20.312;2023-02-04T14:57:58;10.50;;;5.37;;
59424;SDS011;45231;44.826;20.312;2023-02-04T15:00:24;12.25;;;5.60;;